sensor_id;sensor_type;location;lat;lon;timestamp;pressure;altitude;pressure_sealevel;temperature;humidity
72210;BME280;60113;48.762;12.302;2022-11-20T00:04:45;96668.53;;;-0.95;100.00
72210;BME280;60113;48.762;12.302;2022-11-20T00:07:11;96665.09;;;-0.96;100.00
72210;BME280;60113;48.762;12.302;2022-11-20T00:09:37;96668.59;;;-0.97;100.00
72210;BME280;60113;48.762;12.302;2022-11-20T00:12:04;96664.28;;;-0.96;100.00
72210;BME280;60113;48.762;12.302;2022-11-20T00:14:49;96667.75;;;-0.97;100.00
72210;BME280;60113;48.762;12.302;2022-11-20T00:17:15;96666.00;;;-0.97;100.00
72210;BME280;60113;48.762;12.302;2022-11-20T00:19:40;96665.94;;;-0.95;100.00
72210;BME280;60113;48.762;12.302;2022-11-20T00:22:06;96666.88;;;-0.96;100.00
72210;BME280;60113;48.762;12.302;2022-11-20T00:24:31;96679.75;;;-0.96;100.00
72210;BME280;60113;48.762;12.302;2022-11-20T00:26:57;96673.69;;;-0.95;100.00
72210;BME280;60113;48.762;12.302;2022-11-20T00:29:22;96673.75;;;-0.97;100.00
72210;BME280;60113;48.762;12.302;2022-11-20T00:31:48;96673.75;;;-0.97;100.00
72210;BME280;60113;48.762;12.302;2022-11-20T00:34:13;96678.13;;;-0.99;100.00
72210;BME280;60113;48.762;12.302;2022-11-20T00:36:39;96677.34;;;-1.01;100.00
72210;BME280;60113;48.762;12.302;2022-11-20T00:39:04;96684.25;;;-1.02;100.00
72210;BME280;60113;48.762;12.302;2022-11-20T00:41:30;96690.19;;;-0.99;100.00
72210;BME280;60113;48.762;12.302;2022-11-20T00:43:56;96680.69;;;-0.99;100.00
72210;BME280;60113;48.762;12.302;2022-11-20T00:46:24;96685.84;;;-0.99;100.00
72210;BME280;60113;48.762;12.302;2022-11-20T00:48:51;96685.84;;;-0.99;100.00
72210;BME280;60113;48.762;12.302;2022-11-20T00:51:28;96676.44;;;-1.00;100.00
72210;BME280;60113;48.762;12.302;2022-11-20T00:53:56;96687.63;;;-0.99;100.00
72210;BME280;60113;48.762;12.302;2022-11-20T00:56:22;96694.44;;;-0.98;100.00
72210;BME280;60113;48.762;12.302;2022-11-20T00:58:49;96695.28;;;-0.98;100.00
72210;BME280;60113;48.762;12.302;2022-11-20T01:01:17;96695.34;;;-0.99;100.00
72210;BME280;60113;48.762;12.302;2022-11-20T01:03:45;96702.19;;;-0.98;100.00
72210;BME280;60113;48.762;12.302;2022-11-20T01:06:14;96703.91;;;-0.99;100.00
72210;BME280;60113;48.762;12.302;2022-11-20T01:08:41;96702.25;;;-1.00;100.00
72210;BME280;60113;48.762;12.302;2022-11-20T01:11:11;96702.19;;;-0.98;100.00
72210;BME280;60113;48.762;12.302;2022-11-20T01:13:37;96703.84;;;-0.97;100.00
72210;BME280;60113;48.762;12.302;2022-11-20T01:16:08;96707.22;;;-0.95;100.00
72210;BME280;60113;48.762;12.302;2022-11-20T01:18:41;96708.06;;;-0.95;100.00
72210;BME280;60113;48.762;12.302;2022-11-20T01:21:11;96709.75;;;-0.94;100.00
72210;BME280;60113;48.762;12.302;2022-11-20T01:23:39;96712.31;;;-0.94;100.00
72210;BME280;60113;48.762;12.302;2022-11-20T01:26:08;96706.25;;;-0.93;100.00
72210;BME280;60113;48.762;12.302;2022-11-20T01:28:35;96717.44;;;-0.92;100.00
72210;BME280;60113;48.762;12.302;2022-11-20T01:31:14;96714.00;;;-0.93;100.00
72210;BME280;60113;48.762;12.302;2022-11-20T01:33:42;96702.00;;;-0.94;100.00
72210;BME280;60113;48.762;12.302;2022-11-20T01:36:09;96707.09;;;-0.92;100.00
72210;BME280;60113;48.762;12.302;2022-11-20T01:38:35;96708.91;;;-0.94;100.00
72210;BME280;60113;48.762;12.302;2022-11-20T01:41:01;96701.09;;;-0.93;100.00
72210;BME280;60113;48.762;12.302;2022-11-20T01:43:26;96707.09;;;-0.92;100.00
72210;BME280;60113;48.762;12.302;2022-11-20T01:48:52;96693.31;;;-0.91;100.00
72210;BME280;60113;48.762;12.302;2022-11-20T01:51:56;96694.94;;;-0.89;100.00
72210;BME280;60113;48.762;12.302;2022-11-20T01:54:28;96697.53;;;-0.89;100.00
72210;BME280;60113;48.762;12.302;2022-11-20T01:56:57;96690.59;;;-0.88;100.00
72210;BME280;60113;48.762;12.302;2022-11-20T01:59:26;96698.28;;;-0.86;100.00
72210;BME280;60113;48.762;12.302;2022-11-20T02:01:53;96691.38;;;-0.86;100.00
72210;BME280;60113;48.762;12.302;2022-11-20T02:04:22;96689.59;;;-0.84;100.00
72210;BME280;60113;48.762;12.302;2022-11-20T02:06:53;96684.44;;;-0.84;100.00
72210;BME280;60113;48.762;12.302;2022-11-20T02:09:22;96683.53;;;-0.83;100.00
72210;BME280;60113;48.762;12.302;2022-11-20T02:11:49;96689.47;;;-0.81;100.00
72210;BME280;60113;48.762;12.302;2022-11-20T02:14:14;96686.00;;;-0.80;100.00
72210;BME280;60113;48.762;12.302;2022-11-20T02:16:44;96691.09;;;-0.78;100.00
72210;BME280;60113;48.762;12.302;2022-11-20T02:24:26;96698.72;;;-0.75;100.00
72210;BME280;60113;48.762;12.302;2022-11-20T02:26:57;96703.03;;;-0.76;100.00
72210;BME280;60113;48.762;12.302;2022-11-20T02:29:56;96698.66;;;-0.73;100.00
72210;BME280;60113;48.762;12.302;2022-11-20T02:32:31;96687.41;;;-0.72;100.00
72210;BME280;60113;48.762;12.302;2022-11-20T02:35:08;96695.94;;;-0.70;100.00
72210;BME280;60113;48.762;12.302;2022-11-20T02:37:37;96683.91;;;-0.70;100.00
72210;BME280;60113;48.762;12.302;2022-11-20T02:40:08;96675.25;;;-0.69;100.00
72210;BME280;60113;48.762;12.302;2022-11-20T02:42:35;96676.09;;;-0.68;100.00
72210;BME280;60113;48.762;12.302;2022-11-20T02:45:06;96682.06;;;-0.68;100.00
72210;BME280;60113;48.762;12.302;2022-11-20T02:47:32;96686.34;;;-0.67;100.00
72210;BME280;60113;48.762;12.302;2022-11-20T02:49:58;96686.34;;;-0.67;100.00
72210;BME280;60113;48.762;12.302;2022-11-20T02:52:24;96680.28;;;-0.66;100.00
72210;BME280;60113;48.762;12.302;2022-11-20T02:54:50;96680.22;;;-0.64;100.00
72210;BME280;60113;48.762;12.302;2022-11-20T02:57:20;96686.19;;;-0.64;100.00
72210;BME280;60113;48.762;12.302;2022-11-20T02:59:56;96689.63;;;-0.63;100.00
72210;BME280;60113;48.762;12.302;2022-11-20T03:02:21;96679.25;;;-0.61;100.00
72210;BME280;60113;48.762;12.302;2022-11-20T03:04:47;96688.59;;;-0.59;100.00
72210;BME280;60113;48.762;12.302;2022-11-20T03:07:12;96681.72;;;-0.58;100.00
72210;BME280;60113;48.762;12.302;2022-11-20T03:09:38;96682.50;;;-0.56;100.00
72210;BME280;60113;48.762;12.302;2022-11-20T03:12:10;96685.91;;;-0.56;100.00
72210;BME280;60113;48.762;12.302;2022-11-20T03:14:35;96686.69;;;-0.54;100.00
72210;BME280;60113;48.762;12.302;2022-11-20T03:17:01;96684.03;;;-0.52;100.00
72210;BME280;60113;48.762;12.302;2022-11-20T03:19:27;96679.72;;;-0.52;100.00
72210;BME280;60113;48.762;12.302;2022-11-20T03:21:53;96680.56;;;-0.51;100.00
72210;BME280;60113;48.762;12.302;2022-11-20T03:24:34;96676.25;;;-0.51;100.00
72210;BME280;60113;48.762;12.302;2022-11-20T03:26:59;96679.59;;;-0.48;100.00
72210;BME280;60113;48.762;12.302;2022-11-20T03:29:25;96683.91;;;-0.49;100.00
72210;BME280;60113;48.762;12.302;2022-11-20T03:31:52;96678.69;;;-0.47;100.00
72210;BME280;60113;48.762;12.302;2022-11-20T03:34:19;96676.06;;;-0.46;100.00
72210;BME280;60113;48.762;12.302;2022-11-20T03:36:45;96674.31;;;-0.45;100.00
72210;BME280;60113;48.762;12.302;2022-11-20T03:39:11;96673.34;;;-0.43;100.00
72210;BME280;60113;48.762;12.302;2022-11-20T03:41:38;96667.28;;;-0.42;100.00
72210;BME280;60113;48.762;12.302;2022-11-20T03:44:10;96669.72;;;-0.39;100.00
72210;BME280;60113;48.762;12.302;2022-11-20T03:46:36;96663.69;;;-0.38;100.00
72210;BME280;60113;48.762;12.302;2022-11-20T03:49:02;96673.03;;;-0.35;100.00
72210;BME280;60113;48.762;12.302;2022-11-20T03:51:35;96673.75;;;-0.31;100.00
72210;BME280;60113;48.762;12.302;2022-11-20T03:54:05;96675.34;;;-0.29;100.00
72210;BME280;60113;48.762;12.302;2022-11-20T03:56:33;96673.56;;;-0.27;100.00
72210;BME280;60113;48.762;12.302;2022-11-20T03:58:59;96676.09;;;-0.25;100.00
72210;BME280;60113;48.762;12.302;2022-11-20T04:01:32;96673.44;;;-0.23;100.00
72210;BME280;60113;48.762;12.302;2022-11-20T04:04:02;96681.13;;;-0.22;100.00
72210;BME280;60113;48.762;12.302;2022-11-20T04:06:35;96668.22;;;-0.22;100.00
72210;BME280;60113;48.762;12.302;2022-11-20T04:09:05;96668.06;;;-0.19;100.00
72210;BME280;60113;48.762;12.302;2022-11-20T04:11:32;96669.81;;;-0.19;100.00
72210;BME280;60113;48.762;12.302;2022-11-20T04:14:01;96662.00;;;-0.18;100.00
72210;BME280;60113;48.762;12.302;2022-11-20T04:16:29;96662.78;;;-0.16;100.00
72210;BME280;60113;48.762;12.302;2022-11-20T04:18:57;96654.13;;;-0.15;100.00
72210;BME280;60113;48.762;12.302;2022-11-20T04:21:23;96658.31;;;-0.12;100.00
72210;BME280;60113;48.762;12.302;2022-11-20T04:23:50;96657.38;;;-0.09;100.00
72210;BME280;60113;48.762;12.302;2022-11-20T04:26:16;96655.53;;;-0.07;100.00
72210;BME280;60113;48.762;12.302;2022-11-20T04:28:42;96651.09;;;-0.04;100.00
72210;BME280;60113;48.762;12.302;2022-11-20T04:31:10;96654.38;;;0.00;100.00
72210;BME280;60113;48.762;12.302;2022-11-20T04:33:39;96646.47;;;0.03;100.00
72210;BME280;60113;48.762;12.302;2022-11-20T04:38:39;96653.34;;;0.04;100.00
72210;BME280;60113;48.762;12.302;2022-11-20T04:41:06;96664.50;;;0.05;100.00
72210;BME280;60113;48.762;12.302;2022-11-20T04:43:33;96660.25;;;0.04;100.00
72210;BME280;60113;48.762;12.302;2022-11-20T04:45:59;96654.16;;;0.05;100.00
72210;BME280;60113;48.762;12.302;2022-11-20T04:48:27;96659.31;;;0.05;100.00
72210;BME280;60113;48.762;12.302;2022-11-20T04:50:56;96661.16;;;0.03;100.00
72210;BME280;60113;48.762;12.302;2022-11-20T04:53:22;96656.06;;;0.01;100.00
72210;BME280;60113;48.762;12.302;2022-11-20T04:55:48;96656.06;;;0.01;100.00
72210;BME280;60113;48.762;12.302;2022-11-20T04:58:14;96656.88;;;0.02;100.00
72210;BME280;60113;48.762;12.302;2022-11-20T05:00:40;96670.50;;;0.05;100.00
72210;BME280;60113;48.762;12.302;2022-11-20T05:03:06;96660.31;;;0.02;100.00
72210;BME280;60113;48.762;12.302;2022-11-20T05:05:34;96667.00;;;0.06;100.00
72210;BME280;60113;48.762;12.302;2022-11-20T05:08:28;96666.94;;;0.08;100.00
72210;BME280;60113;48.762;12.302;2022-11-20T05:10:53;96670.38;;;0.08;100.00
72210;BME280;60113;48.762;12.302;2022-11-20T05:13:19;96670.31;;;0.10;100.00
72210;BME280;60113;48.762;12.302;2022-11-20T05:15:44;96676.25;;;0.12;100.00
72210;BME280;60113;48.762;12.302;2022-11-20T05:18:10;96665.00;;;0.13;100.00
72210;BME280;60113;48.762;12.302;2022-11-20T05:20:35;96672.75;;;0.13;100.00
72210;BME280;60113;48.762;12.302;2022-11-20T05:23:20;96673.47;;;0.17;100.00
72210;BME280;60113;48.762;12.302;2022-11-20T05:25:45;96675.22;;;0.16;100.00
72210;BME280;60113;48.762;12.302;2022-11-20T05:28:12;96669.97;;;0.18;100.00
72210;BME280;60113;48.762;12.302;2022-11-20T05:30:37;96670.91;;;0.17;100.00
72210;BME280;60113;48.762;12.302;2022-11-20T05:33:03;96659.63;;;0.18;100.00
72210;BME280;60113;48.762;12.302;2022-11-20T05:35:28;96669.91;;;0.19;100.00
72210;BME280;60113;48.762;12.302;2022-11-20T05:37:53;96675.88;;;0.21;100.00
72210;BME280;60113;48.762;12.302;2022-11-20T05:40:19;96664.59;;;0.22;100.00
72210;BME280;60113;48.762;12.302;2022-11-20T05:42:44;96667.13;;;0.24;100.00
72210;BME280;60113;48.762;12.302;2022-11-20T05:45:22;96664.47;;;0.26;100.00
72210;BME280;60113;48.762;12.302;2022-11-20T05:47:47;96664.34;;;0.29;100.00
72210;BME280;60113;48.762;12.302;2022-11-20T05:50:14;96660.03;;;0.29;100.00
72210;BME280;60113;48.762;12.302;2022-11-20T05:52:40;96663.44;;;0.30;100.00
72210;BME280;60113;48.762;12.302;2022-11-20T05:55:06;96663.34;;;0.31;100.00
72210;BME280;60113;48.762;12.302;2022-11-20T05:57:32;96665.06;;;0.32;100.00
72210;BME280;60113;48.762;12.302;2022-11-20T05:59:57;96663.28;;;0.33;100.00
72210;BME280;60113;48.762;12.302;2022-11-20T06:02:23;96661.50;;;0.35;100.00
72210;BME280;60113;48.762;12.302;2022-11-20T06:04:48;96667.44;;;0.37;100.00
72210;BME280;60113;48.762;12.302;2022-11-20T06:07:33;96668.19;;;0.39;100.00
72210;BME280;60113;48.762;12.302;2022-11-20T06:09:59;96658.69;;;0.40;100.00
72210;BME280;60113;48.762;12.302;2022-11-20T06:12:25;96663.88;;;0.40;100.00
72210;BME280;60113;48.762;12.302;2022-11-20T06:14:50;96658.75;;;0.38;100.00
72210;BME280;60113;48.762;12.302;2022-11-20T06:17:16;96663.03;;;0.39;100.00
72210;BME280;60113;48.762;12.302;2022-11-20T06:19:41;96669.03;;;0.40;100.00
72210;BME280;60113;48.762;12.302;2022-11-20T06:22:07;96670.78;;;0.39;100.00
72210;BME280;60113;48.762;12.302;2022-11-20T06:24:33;96665.53;;;0.41;100.00
72210;BME280;60113;48.762;12.302;2022-11-20T06:26:59;96664.72;;;0.40;100.00
72210;BME280;60113;48.762;12.302;2022-11-20T06:29:25;96673.28;;;0.41;100.00
72210;BME280;60113;48.762;12.302;2022-11-20T06:31:50;96671.50;;;0.43;100.00
72210;BME280;60113;48.762;12.302;2022-11-20T06:34:16;96678.31;;;0.44;100.00
72210;BME280;60113;48.762;12.302;2022-11-20T06:36:41;96671.34;;;0.46;100.00
72210;BME280;60113;48.762;12.302;2022-11-20T06:39:07;96673.03;;;0.47;100.00
72210;BME280;60113;48.762;12.302;2022-11-20T06:41:33;96679.69;;;0.53;100.00
72210;BME280;60113;48.762;12.302;2022-11-20T06:43:58;96675.91;;;0.60;100.00
72210;BME280;60113;48.762;12.302;2022-11-20T06:46:25;96673.78;;;0.68;100.00
72210;BME280;60113;48.762;12.302;2022-11-20T06:48:50;96677.66;;;0.79;100.00
72210;BME280;60113;48.762;12.302;2022-11-20T06:51:16;96686.44;;;0.94;100.00
72210;BME280;60113;48.762;12.302;2022-11-20T06:53:42;96684.22;;;1.05;100.00
72210;BME280;60113;48.762;12.302;2022-11-20T06:56:08;96684.47;;;1.18;100.00
72210;BME280;60113;48.762;12.302;2022-11-20T06:58:34;96685.72;;;1.29;100.00
72210;BME280;60113;48.762;12.302;2022-11-20T07:01:05;96681.78;;;1.39;100.00
72210;BME280;60113;48.762;12.302;2022-11-20T07:03:31;96686.50;;;1.48;100.00
72210;BME280;60113;48.762;12.302;2022-11-20T07:05:57;96686.06;;;1.58;100.00
72210;BME280;60113;48.762;12.302;2022-11-20T07:08:29;96689.03;;;1.68;100.00
72210;BME280;60113;48.762;12.302;2022-11-20T07:11:01;96689.56;;;1.74;100.00
72210;BME280;60113;48.762;12.302;2022-11-20T07:13:29;96692.72;;;1.81;100.00
72210;BME280;60113;48.762;12.302;2022-11-20T07:15:55;96687.22;;;1.87;100.00
72210;BME280;60113;48.762;12.302;2022-11-20T07:18:34;96689.44;;;1.95;100.00
72210;BME280;60113;48.762;12.302;2022-11-20T07:21:05;96688.28;;;2.01;100.00
72210;BME280;60113;48.762;12.302;2022-11-20T07:23:33;96689.63;;;2.08;100.00
72210;BME280;60113;48.762;12.302;2022-11-20T07:26:03;96684.97;;;2.15;100.00
72210;BME280;60113;48.762;12.302;2022-11-20T07:28:28;96687.34;;;2.20;100.00
72210;BME280;60113;48.762;12.302;2022-11-20T07:30:54;96679.31;;;2.24;100.00
72210;BME280;60113;48.762;12.302;2022-11-20T07:33:20;96679.00;;;2.31;100.00
72210;BME280;60113;48.762;12.302;2022-11-20T07:35:46;96686.56;;;2.35;100.00
72210;BME280;60113;48.762;12.302;2022-11-20T07:38:11;96680.19;;;2.41;100.00
72210;BME280;60113;48.762;12.302;2022-11-20T07:40:38;96679.97;;;2.46;100.00
72210;BME280;60113;48.762;12.302;2022-11-20T07:43:03;96683.25;;;2.49;100.00
72210;BME280;60113;48.762;12.302;2022-11-20T07:45:29;96683.91;;;2.53;100.00
72210;BME280;60113;48.762;12.302;2022-11-20T07:47:54;96671.53;;;2.58;100.00
72210;BME280;60113;48.762;12.302;2022-11-20T07:50:20;96677.41;;;2.62;100.00
72210;BME280;60113;48.762;12.302;2022-11-20T07:52:46;96685.03;;;2.65;100.00
72210;BME280;60113;48.762;12.302;2022-11-20T07:55:12;96685.59;;;2.70;100.00
72210;BME280;60113;48.762;12.302;2022-11-20T07:57:44;96680.09;;;2.77;100.00
72210;BME280;60113;48.762;12.302;2022-11-20T08:00:10;96684.00;;;2.84;99.69
72210;BME280;60113;48.762;12.302;2022-11-20T08:02:37;96669.81;;;2.91;99.40
72210;BME280;60113;48.762;12.302;2022-11-20T08:05:04;96681.44;;;3.00;99.06
72210;BME280;60113;48.762;12.302;2022-11-20T08:07:38;96678.50;;;3.06;98.67
72210;BME280;60113;48.762;12.302;2022-11-20T08:10:04;96684.22;;;3.13;98.41
72210;BME280;60113;48.762;12.302;2022-11-20T08:12:30;96688.22;;;3.19;97.66
72210;BME280;60113;48.762;12.302;2022-11-20T08:15:14;96684.44;;;3.24;98.05
72210;BME280;60113;48.762;12.302;2022-11-20T08:17:39;96687.72;;;3.28;97.31
72210;BME280;60113;48.762;12.302;2022-11-20T08:20:05;96684.84;;;3.33;97.79
72210;BME280;60113;48.762;12.302;2022-11-20T08:22:33;96684.69;;;3.36;97.53
72210;BME280;60113;48.762;12.302;2022-11-20T08:24:58;96677.63;;;3.38;97.30
72210;BME280;60113;48.762;12.302;2022-11-20T08:27:24;96685.16;;;3.43;97.80
72210;BME280;60113;48.762;12.302;2022-11-20T08:29:49;96685.84;;;3.46;97.55
72210;BME280;60113;48.762;12.302;2022-11-20T08:32:15;96682.13;;;3.50;96.85
72210;BME280;60113;48.762;12.302;2022-11-20T08:34:40;96679.44;;;3.52;97.08
72210;BME280;60113;48.762;12.302;2022-11-20T08:37:06;96682.81;;;3.54;97.64
72210;BME280;60113;48.762;12.302;2022-11-20T08:39:32;96677.53;;;3.56;97.26
72210;BME280;60113;48.762;12.302;2022-11-20T08:41:57;96678.28;;;3.58;97.23
72210;BME280;60113;48.762;12.302;2022-11-20T08:44:23;96683.31;;;3.61;96.64
72210;BME280;60113;48.762;12.302;2022-11-20T08:46:49;96671.03;;;3.63;96.80
72210;BME280;60113;48.762;12.302;2022-11-20T08:49:14;96670.06;;;3.66;96.16
72210;BME280;60113;48.762;12.302;2022-11-20T08:51:41;96673.28;;;3.69;96.20
72210;BME280;60113;48.762;12.302;2022-11-20T08:54:14;96668.84;;;3.71;96.55
72210;BME280;60113;48.762;12.302;2022-11-20T08:56:41;96679.91;;;3.75;95.96
72210;BME280;60113;48.762;12.302;2022-11-20T08:59:06;96671.19;;;3.76;95.73
72210;BME280;60113;48.762;12.302;2022-11-20T09:01:32;96675.34;;;3.79;95.60
72210;BME280;60113;48.762;12.302;2022-11-20T09:03:58;96673.44;;;3.82;96.04
72210;BME280;60113;48.762;12.302;2022-11-20T09:06:25;96675.94;;;3.84;95.77
72210;BME280;60113;48.762;12.302;2022-11-20T09:08:54;96678.53;;;3.84;95.54
72210;BME280;60113;48.762;12.302;2022-11-20T09:11:21;96683.81;;;3.82;95.63
72210;BME280;60113;48.762;12.302;2022-11-20T09:13:47;96681.13;;;3.84;95.42
72210;BME280;60113;48.762;12.302;2022-11-20T09:16:12;96670.81;;;3.82;94.35
72210;BME280;60113;48.762;12.302;2022-11-20T09:18:38;96672.50;;;3.83;94.67
72210;BME280;60113;48.762;12.302;2022-11-20T09:21:12;96669.06;;;3.83;94.14
72210;BME280;60113;48.762;12.302;2022-11-20T09:23:39;96676.78;;;3.84;94.26
72210;BME280;60113;48.762;12.302;2022-11-20T09:26:15;96670.66;;;3.85;94.86
72210;BME280;60113;48.762;12.302;2022-11-20T09:28:41;96679.28;;;3.86;94.10
72210;BME280;60113;48.762;12.302;2022-11-20T09:31:07;96675.84;;;3.85;95.51
72210;BME280;60113;48.762;12.302;2022-11-20T09:33:35;96676.59;;;3.87;95.14
72210;BME280;60113;48.762;12.302;2022-11-20T09:36:01;96674.00;;;3.87;94.75
72210;BME280;60113;48.762;12.302;2022-11-20T09:38:26;96664.44;;;3.88;94.43
72210;BME280;60113;48.762;12.302;2022-11-20T09:40:59;96681.53;;;3.92;94.30
72210;BME280;60113;48.762;12.302;2022-11-20T09:46:39;96663.16;;;3.95;92.91
72210;BME280;60113;48.762;12.302;2022-11-20T09:54:42;96675.59;;;4.05;93.81
72210;BME280;60113;48.762;12.302;2022-11-20T09:57:14;96676.25;;;4.08;93.03
72210;BME280;60113;48.762;12.302;2022-11-20T10:00:05;96675.06;;;4.14;91.27
72210;BME280;60113;48.762;12.302;2022-11-20T10:06:02;96664.75;;;4.27;91.31
72210;BME280;60113;48.762;12.302;2022-11-20T10:08:34;96665.06;;;4.37;92.30
72210;BME280;60113;48.762;12.302;2022-11-20T10:11:17;96664.22;;;4.51;91.50
72210;BME280;60113;48.762;12.302;2022-11-20T10:14:06;96673.78;;;4.65;92.59
72210;BME280;60113;48.762;12.302;2022-11-20T10:23:07;96666.59;;;4.83;90.20
72210;BME280;60113;48.762;12.302;2022-11-20T10:26:22;96662.69;;;4.91;90.00
72210;BME280;60113;48.762;12.302;2022-11-20T10:32:00;96655.94;;;5.01;89.45
72210;BME280;60113;48.762;12.302;2022-11-20T10:37:27;96660.53;;;4.97;91.38
72210;BME280;60113;48.762;12.302;2022-11-20T10:42:50;96658.69;;;4.85;91.37
72210;BME280;60113;48.762;12.302;2022-11-20T10:45:44;96655.06;;;4.73;89.77
72210;BME280;60113;48.762;12.302;2022-11-20T10:48:20;96652.75;;;4.68;90.32
72210;BME280;60113;48.762;12.302;2022-11-20T10:56:50;96643.03;;;4.57;89.77
72210;BME280;60113;48.762;12.302;2022-11-20T10:59:38;96650.00;;;4.57;90.09
72210;BME280;60113;48.762;12.302;2022-11-20T11:02:20;96650.00;;;4.57;90.02
72210;BME280;60113;48.762;12.302;2022-11-20T11:04:50;96657.81;;;4.57;90.33
72210;BME280;60113;48.762;12.302;2022-11-20T11:07:21;96654.25;;;4.58;91.11
72210;BME280;60113;48.762;12.302;2022-11-20T11:09:53;96657.72;;;4.58;90.49
72210;BME280;60113;48.762;12.302;2022-11-20T11:12:22;96641.25;;;4.58;90.62
72210;BME280;60113;48.762;12.302;2022-11-20T11:14:53;96632.81;;;4.54;89.52
72210;BME280;60113;48.762;12.302;2022-11-20T11:17:25;96632.72;;;4.56;90.28
72210;BME280;60113;48.762;12.302;2022-11-20T11:20:14;96624.81;;;4.57;88.68
72210;BME280;60113;48.762;12.302;2022-11-20T11:22:46;96634.84;;;4.63;89.52
72210;BME280;60113;48.762;12.302;2022-11-20T11:28:21;96637.34;;;4.65;88.96
72210;BME280;60113;48.762;12.302;2022-11-20T11:30:46;96633.63;;;4.69;89.62
72210;BME280;60113;48.762;12.302;2022-11-20T11:36:01;96630.28;;;4.67;89.26
72210;BME280;60113;48.762;12.302;2022-11-20T11:38:38;96631.13;;;4.68;89.78
72210;BME280;60113;48.762;12.302;2022-11-20T11:41:06;96631.94;;;4.68;89.19
72210;BME280;60113;48.762;12.302;2022-11-20T11:43:35;96629.22;;;4.70;90.09
72210;BME280;60113;48.762;12.302;2022-11-20T11:46:32;96626.16;;;4.78;89.80
72210;BME280;60113;48.762;12.302;2022-11-20T11:51:45;96626.31;;;4.89;88.56
72210;BME280;60113;48.762;12.302;2022-11-20T11:54:20;96619.06;;;4.94;88.77
72210;BME280;60113;48.762;12.302;2022-11-20T11:56:50;96625.00;;;4.96;87.83
72210;BME280;60113;48.762;12.302;2022-11-20T11:59:28;96618.03;;;4.97;88.74
72210;BME280;60113;48.762;12.302;2022-11-20T12:02:09;96614.38;;;4.99;88.48
72210;BME280;60113;48.762;12.302;2022-11-20T12:04:48;96615.03;;;5.03;89.84
72210;BME280;60113;48.762;12.302;2022-11-20T12:07:29;96609.72;;;5.05;89.19
72210;BME280;60113;48.762;12.302;2022-11-20T12:09:58;96609.25;;;5.12;88.98
72210;BME280;60113;48.762;12.302;2022-11-20T12:12:31;96602.09;;;5.29;88.38
72210;BME280;60113;48.762;12.302;2022-11-20T12:14:58;96606.22;;;5.46;88.49
72210;BME280;60113;48.762;12.302;2022-11-20T12:17:23;96607.69;;;5.63;89.74
72210;BME280;60113;48.762;12.302;2022-11-20T12:19:49;96599.78;;;5.65;89.19
72210;BME280;60113;48.762;12.302;2022-11-20T12:25:25;96612.56;;;5.42;88.60
72210;BME280;60113;48.762;12.302;2022-11-20T12:36:31;96616.09;;;4.86;89.51
72210;BME280;60113;48.762;12.302;2022-11-20T12:48:12;96614.19;;;4.75;91.57
72210;BME280;60113;48.762;12.302;2022-11-20T13:07:44;96600.22;;;4.76;91.85
72210;BME280;60113;48.762;12.302;2022-11-20T13:10:38;96604.81;;;4.72;91.12
72210;BME280;60113;48.762;12.302;2022-11-20T13:15:54;96604.91;;;4.71;92.25
72210;BME280;60113;48.762;12.302;2022-11-20T13:18:21;96603.44;;;4.67;91.63
72210;BME280;60113;48.762;12.302;2022-11-20T13:20:47;96603.63;;;4.63;91.85
72210;BME280;60113;48.762;12.302;2022-11-20T13:23:26;96603.81;;;4.60;92.11
72210;BME280;60113;48.762;12.302;2022-11-20T13:26:04;96596.28;;;4.56;92.11
72210;BME280;60113;48.762;12.302;2022-11-20T13:28:30;96593.78;;;4.54;92.58
72210;BME280;60113;48.762;12.302;2022-11-20T13:30:57;96593.13;;;4.50;91.89
72210;BME280;60113;48.762;12.302;2022-11-20T13:33:25;96600.19;;;4.48;92.51
72210;BME280;60113;48.762;12.302;2022-11-20T13:36:07;96589.06;;;4.46;92.29
72210;BME280;60113;48.762;12.302;2022-11-20T13:38:50;96589.97;;;4.45;92.17
72210;BME280;60113;48.762;12.302;2022-11-20T13:41:30;96596.84;;;4.46;92.56
72210;BME280;60113;48.762;12.302;2022-11-20T13:44:14;96582.16;;;4.45;92.75
72210;BME280;60113;48.762;12.302;2022-11-20T13:46:45;96580.41;;;4.46;92.65
72210;BME280;60113;48.762;12.302;2022-11-20T13:49:25;96587.34;;;4.45;92.33
72210;BME280;60113;48.762;12.302;2022-11-20T13:52:03;96579.56;;;4.45;92.51
72210;BME280;60113;48.762;12.302;2022-11-20T13:54:55;96584.75;;;4.45;92.31
72210;BME280;60113;48.762;12.302;2022-11-20T13:59:57;96587.28;;;4.47;92.93
72210;BME280;60113;48.762;12.302;2022-11-20T14:02:26;96582.91;;;4.47;92.40
72210;BME280;60113;48.762;12.302;2022-11-20T14:04:54;96581.16;;;4.48;92.21
72210;BME280;60113;48.762;12.302;2022-11-20T14:07:25;96577.69;;;4.47;92.89
72210;BME280;60113;48.762;12.302;2022-11-20T14:09:56;96580.31;;;4.47;93.24
72210;BME280;60113;48.762;12.302;2022-11-20T14:12:29;96583.84;;;4.46;92.49
72210;BME280;60113;48.762;12.302;2022-11-20T14:14:55;96582.06;;;4.47;92.03
72210;BME280;60113;48.762;12.302;2022-11-20T14:19:52;96583.75;;;4.48;92.03
72210;BME280;60113;48.762;12.302;2022-11-20T14:22:26;96584.66;;;4.47;92.36
72210;BME280;60113;48.762;12.302;2022-11-20T14:27:41;96584.66;;;4.47;92.76
72210;BME280;60113;48.762;12.302;2022-11-20T14:30:19;96575.09;;;4.47;91.88
72210;BME280;60113;48.762;12.302;2022-11-20T14:32:46;96582.91;;;4.47;91.56
72210;BME280;60113;48.762;12.302;2022-11-20T14:35:24;96584.66;;;4.47;91.18
72210;BME280;60113;48.762;12.302;2022-11-20T14:37:52;96576.03;;;4.46;92.42
72210;BME280;60113;48.762;12.302;2022-11-20T14:42:50;96571.84;;;4.44;90.92
72210;BME280;60113;48.762;12.302;2022-11-20T14:45:16;96562.38;;;4.43;91.81
72210;BME280;60113;48.762;12.302;2022-11-20T14:47:43;96577.25;;;4.41;91.94
72210;BME280;60113;48.762;12.302;2022-11-20T14:50:35;96559.13;;;4.39;91.72